Terminal Aerodrome Forecast
Issued by NWS

Current Version | Previous Version | Text Only | Print | Product List | Glossary On
Versions: 1 2 3 4 5 6 7 8 9 10 11 12 13 14 15 16 17
465
FTUS43 KIND 121720
TAFBMG
TAF
KBMG 121720Z 1218/1318 31013G21KT P6SM FEW200
     FM130000 30008KT P6SM FEW250
     FM131700 19011KT P6SM BKN150=

USA.gov is the U.S. government's official web portal to all federal, state and local government web resources and services.